createdAt,value
2017-08-18T00:00:32.212Z,79.83
2017-08-18T00:03:07.215Z,79.89
2017-08-18T00:05:42.302Z,79.91
2017-08-18T00:08:17.362Z,79.87
2017-08-18T00:10:52.674Z,79.75
2017-08-18T00:13:28.229Z,79.92
2017-08-18T00:16:04.565Z,79.73
2017-08-18T00:18:40.735Z,79.81
2017-08-18T00:21:15.921Z,79.76
2017-08-18T00:23:51.335Z,79.84
2017-08-18T00:26:26.821Z,79.74
2017-08-18T00:29:02.002Z,79.92
2017-08-18T00:31:37.069Z,79.81
2017-08-18T00:34:11.910Z,79.84
2017-08-18T00:36:47.055Z,79.70
2017-08-18T00:39:23.078Z,79.74
2017-08-18T00:41:58.047Z,79.79
2017-08-18T00:44:33.697Z,79.53
2017-08-18T00:47:09.259Z,79.79
2017-08-18T00:49:44.701Z,79.71
2017-08-18T00:52:19.749Z,79.56
2017-08-18T00:54:54.555Z,79.72
2017-08-18T00:57:29.390Z,79.67
2017-08-18T01:00:05.466Z,79.87
2017-08-18T01:02:41.236Z,79.63
2017-08-18T01:05:16.165Z,79.74
2017-08-18T01:07:52.352Z,79.54
2017-08-18T01:10:27.929Z,79.54
2017-08-18T01:13:04.714Z,79.75
2017-08-18T01:15:40.955Z,79.71
2017-08-18T01:18:16.549Z,79.59
2017-08-18T01:20:52.639Z,79.72
2017-08-18T01:23:28.060Z,79.59
2017-08-18T01:26:03.516Z,79.67
2017-08-18T01:28:38.537Z,79.67
2017-08-18T01:31:13.613Z,79.66
2017-08-18T01:33:50.090Z,79.71
2017-08-18T01:36:25.009Z,79.67
2017-08-18T01:39:00.681Z,79.92
2017-08-18T01:41:36.076Z,79.69
2017-08-18T01:44:11.058Z,79.77
2017-08-18T01:46:46.893Z,79.64
2017-08-18T01:49:22.210Z,79.75
2017-08-18T01:51:57.299Z,79.70
2017-08-18T01:54:32.343Z,79.64
2017-08-18T01:57:07.281Z,79.70
2017-08-18T01:59:42.056Z,79.59
2017-08-18T02:02:17.136Z,79.91
2017-08-18T02:04:53.608Z,79.80
2017-08-18T02:07:28.871Z,79.76
2017-08-18T02:10:03.738Z,79.86
2017-08-18T02:12:39.033Z,79.86
2017-08-18T02:15:14.743Z,79.85
2017-08-18T02:17:50.105Z,79.96
2017-08-18T02:20:26.236Z,80.04
2017-08-18T02:23:07.093Z,79.94
2017-08-18T02:25:42.744Z,79.97
2017-08-18T02:28:18.187Z,80.11
2017-08-18T02:30:53.267Z,79.97
2017-08-18T02:33:28.825Z,79.83
2017-08-18T02:36:04.178Z,79.96
2017-08-18T02:38:39.247Z,79.90
2017-08-18T02:41:14.222Z,79.71
2017-08-18T02:43:49.873Z,79.83
2017-08-18T02:46:24.808Z,79.92
2017-08-18T02:49:01.090Z,79.77
2017-08-18T02:51:36.773Z,79.62
2017-08-18T02:54:12.541Z,79.64
2017-08-18T02:56:47.469Z,79.62
2017-08-18T02:59:22.639Z,79.62
2017-08-18T03:01:58.331Z,79.52
2017-08-18T03:04:32.925Z,79.54
2017-08-18T03:07:08.304Z,79.67
2017-08-18T03:09:43.317Z,79.65
2017-08-18T03:12:18.446Z,79.75
2017-08-18T03:14:53.431Z,79.69
2017-08-18T03:17:28.036Z,79.79
2017-08-18T03:20:03.702Z,79.72
2017-08-18T03:22:39.044Z,79.88
2017-08-18T03:25:14.226Z,79.98
2017-08-18T03:27:49.362Z,79.76
2017-08-18T03:30:24.941Z,79.71
2017-08-18T03:33:04.125Z,79.76
2017-08-18T03:35:40.028Z,79.57
2017-08-18T03:38:14.897Z,79.67
2017-08-18T03:40:50.871Z,79.66
2017-08-18T03:43:27.278Z,79.60
2017-08-18T03:46:02.608Z,79.55
2017-08-18T03:48:37.694Z,79.58
2017-08-18T03:51:12.662Z,79.46
2017-08-18T03:53:47.371Z,79.49
2017-08-18T03:56:22.583Z,79.41
2017-08-18T03:58:57.180Z,79.39
2017-08-18T04:01:34.048Z,79.35
2017-08-18T04:04:09.478Z,79.37
2017-08-18T04:06:45.158Z,79.29
2017-08-18T04:09:20.336Z,79.28
2017-08-18T04:11:56.197Z,79.29
2017-08-18T04:14:31.403Z,79.28
2017-08-18T04:17:07.610Z,79.20
2017-08-18T04:19:43.350Z,79.31
2017-08-18T04:22:22.586Z,79.21
2017-08-18T04:25:00.461Z,79.12
2017-08-18T04:27:35.750Z,79.20
2017-08-18T04:30:11.268Z,79.14
2017-08-18T04:32:46.770Z,79.18
2017-08-18T04:35:22.507Z,79.17
2017-08-18T04:37:58.359Z,79.13
2017-08-18T04:40:33.659Z,79.21
2017-08-18T04:43:09.788Z,79.27
2017-08-18T04:45:45.248Z,79.43
2017-08-18T04:48:20.777Z,79.42
2017-08-18T04:50:55.935Z,79.43
2017-08-18T04:53:31.951Z,79.58
2017-08-18T04:56:07.514Z,79.59
2017-08-18T04:58:44.725Z,79.55
2017-08-18T05:01:20.344Z,79.66
2017-08-18T05:03:55.966Z,79.63
2017-08-18T05:06:31.120Z,79.55
2017-08-18T05:09:05.596Z,79.57
2017-08-18T05:11:41.101Z,79.50
2017-08-18T05:14:16.059Z,79.45
2017-08-18T05:16:51.709Z,79.43
2017-08-18T05:19:26.988Z,79.43
2017-08-18T05:22:01.934Z,79.46
2017-08-18T05:24:36.949Z,79.50
2017-08-18T05:27:13.033Z,79.62
2017-08-18T05:29:48.189Z,79.60
2017-08-18T05:32:23.131Z,79.60
2017-08-18T05:34:58.883Z,79.65
2017-08-18T05:37:34.173Z,79.61
2017-08-18T05:40:09.115Z,79.53
2017-08-18T05:42:44.902Z,79.60
2017-08-18T05:45:20.078Z,79.48
2017-08-18T05:47:55.545Z,79.63
2017-08-18T05:50:31.240Z,79.56
2017-08-18T05:53:06.476Z,79.63
2017-08-18T05:55:41.722Z,79.64
2017-08-18T05:58:16.902Z,79.81
2017-08-18T06:00:52.164Z,79.80
2017-08-18T06:03:27.422Z,79.75
2017-08-18T06:06:02.581Z,80.20
2017-08-18T06:08:37.445Z,79.88
2017-08-18T06:11:12.582Z,79.85
2017-08-18T06:13:47.686Z,80.02
2017-08-18T06:16:23.043Z,80.17
2017-08-18T06:18:57.788Z,80.00
2017-08-18T06:21:33.168Z,80.26
2017-08-18T06:24:08.461Z,80.03
2017-08-18T06:26:43.567Z,80.16
2017-08-18T06:29:18.494Z,80.23
2017-08-18T06:31:54.225Z,80.20
2017-08-18T06:34:29.339Z,80.31
2017-08-18T06:37:04.455Z,80.26
2017-08-18T06:39:39.459Z,80.11
2017-08-18T06:42:14.534Z,80.50
2017-08-18T06:44:50.196Z,80.25
2017-08-18T06:47:25.732Z,80.40
2017-08-18T06:50:01.232Z,80.43
2017-08-18T06:52:36.903Z,80.43
2017-08-18T06:55:11.820Z,80.29
2017-08-18T06:57:47.025Z,80.44
2017-08-18T07:00:22.322Z,80.50
2017-08-18T07:02:58.918Z,80.54
2017-08-18T07:05:34.886Z,80.38
2017-08-18T07:08:10.747Z,80.59
2017-08-18T07:10:47.272Z,80.64
2017-08-18T07:13:23.744Z,80.42
2017-08-18T07:15:59.390Z,80.61
2017-08-18T07:18:35.023Z,80.57
2017-08-18T07:21:10.183Z,80.47
2017-08-18T07:23:45.505Z,80.38
2017-08-18T07:26:20.685Z,80.45
2017-08-18T07:28:56.482Z,80.51
2017-08-18T07:31:31.614Z,80.55
2017-08-18T07:34:06.665Z,80.43
2017-08-18T07:36:41.714Z,80.53
2017-08-18T07:39:16.608Z,80.38
2017-08-18T07:41:51.389Z,80.46
2017-08-18T07:44:26.321Z,80.30
2017-08-18T07:47:02.894Z,80.21
2017-08-18T07:49:38.405Z,80.25
2017-08-18T07:52:13.668Z,80.33
2017-08-18T07:54:49.428Z,80.10
2017-08-18T07:57:25.748Z,79.95
2017-08-18T08:00:02.042Z,80.09
2017-08-18T08:02:37.820Z,80.06
2017-08-18T08:05:13.591Z,79.88
2017-08-18T08:07:49.039Z,79.73
2017-08-18T08:10:24.511Z,79.72
2017-08-18T08:13:05.404Z,79.63
2017-08-18T08:15:40.239Z,79.64
2017-08-18T08:18:16.313Z,79.66
2017-08-18T08:20:51.727Z,79.60
2017-08-18T08:23:26.747Z,79.61
2017-08-18T08:26:01.846Z,79.58
2017-08-18T08:28:36.972Z,79.61
2017-08-18T08:31:11.904Z,79.44
2017-08-18T08:33:47.785Z,79.30
2017-08-18T08:36:23.702Z,79.22
2017-08-18T08:38:59.388Z,79.19
2017-08-18T08:41:34.132Z,78.99
2017-08-18T08:44:09.787Z,79.19
2017-08-18T08:46:45.672Z,79.08
2017-08-18T08:49:21.765Z,79.01
2017-08-18T08:51:56.782Z,78.81
2017-08-18T08:54:31.715Z,78.76
2017-08-18T08:57:06.703Z,78.82
2017-08-18T08:59:42.361Z,78.80
2017-08-18T09:02:17.641Z,78.76
2017-08-18T09:04:53.801Z,78.71
2017-08-18T09:07:29.865Z,78.84
2017-08-18T09:10:05.470Z,78.83
2017-08-18T09:12:41.555Z,78.84
2017-08-18T09:15:17.081Z,78.84
2017-08-18T09:17:52.280Z,78.81
2017-08-18T09:20:27.964Z,78.68
2017-08-18T09:23:03.736Z,78.70
2017-08-18T09:25:40.347Z,78.73
2017-08-18T09:28:16.134Z,78.62
2017-08-18T09:30:51.748Z,78.63
2017-08-18T09:33:27.244Z,78.64
2017-08-18T09:36:02.306Z,78.86
2017-08-18T09:38:37.403Z,78.67
2017-08-18T09:41:13.144Z,78.65
2017-08-18T09:43:48.702Z,78.76
2017-08-18T09:46:24.589Z,78.70
2017-08-18T09:49:10.997Z,78.73
2017-08-18T09:51:58.485Z,78.93
2017-08-18T09:54:45.104Z,78.80
2017-08-18T09:57:31.181Z,78.61
2017-08-18T10:00:07.155Z,78.74
2017-08-18T10:02:42.576Z,78.70
2017-08-18T10:05:17.328Z,78.75
2017-08-18T10:07:52.241Z,78.89
2017-08-18T10:10:26.945Z,78.79
2017-08-18T10:13:05.398Z,78.92
2017-08-18T10:15:41.593Z,78.94
2017-08-18T10:18:17.161Z,79.00
2017-08-18T10:20:52.364Z,78.89
2017-08-18T10:23:27.804Z,78.90
2017-08-18T10:26:02.785Z,79.13
2017-08-18T10:28:37.374Z,79.04
2017-08-18T10:31:12.521Z,79.05
2017-08-18T10:33:47.561Z,79.05
2017-08-18T10:36:22.703Z,79.04
2017-08-18T10:38:58.776Z,79.01
2017-08-18T10:41:34.437Z,79.07
2017-08-18T10:44:10.732Z,79.05
2017-08-18T10:46:45.830Z,79.08
2017-08-18T10:49:21.083Z,79.00
2017-08-18T10:51:56.533Z,79.11
2017-08-18T10:54:31.721Z,79.25
2017-08-18T10:57:06.798Z,79.27
2017-08-18T10:59:42.105Z,79.23
2017-08-18T11:02:17.027Z,79.24
2017-08-18T11:04:52.823Z,79.25
2017-08-18T11:07:28.441Z,79.38
2017-08-18T11:10:03.574Z,79.33
2017-08-18T11:12:38.513Z,79.36
2017-08-18T11:15:13.704Z,79.37
2017-08-18T11:17:49.553Z,79.45
2017-08-18T11:20:25.062Z,79.63
2017-08-18T11:23:04.418Z,79.63
2017-08-18T11:25:39.834Z,79.78
2017-08-18T11:28:14.730Z,79.77
2017-08-18T11:30:49.850Z,79.92
2017-08-18T11:33:25.262Z,79.89
2017-08-18T11:36:00.558Z,80.06
2017-08-18T11:38:36.553Z,80.13
2017-08-18T11:41:11.700Z,80.15
2017-08-18T11:43:46.762Z,80.27
2017-08-18T11:46:22.649Z,80.25
2017-08-18T11:48:57.686Z,80.32
2017-08-18T11:51:33.706Z,80.35
2017-08-18T11:54:09.304Z,80.38
2017-08-18T11:56:44.299Z,80.52
2017-08-18T11:59:19.741Z,80.46
2017-08-18T12:01:55.067Z,80.52
2017-08-18T12:04:30.038Z,80.55
2017-08-18T12:07:05.062Z,80.62
2017-08-18T12:09:40.371Z,80.77
2017-08-18T12:12:15.332Z,80.57
2017-08-18T12:14:51.181Z,80.74
2017-08-18T12:17:26.677Z,80.68
2017-08-18T12:20:03.159Z,80.62
2017-08-18T12:22:39.508Z,80.65
2017-08-18T12:25:15.343Z,80.74
2017-08-18T12:27:50.661Z,80.84
2017-08-18T12:30:26.344Z,80.79
2017-08-18T12:33:03.044Z,80.84
2017-08-18T12:35:38.234Z,80.91
2017-08-18T12:38:13.421Z,81.03
2017-08-18T12:40:49.417Z,81.09
2017-08-18T12:43:25.199Z,80.95
2017-08-18T12:46:00.991Z,81.05
2017-08-18T12:48:36.081Z,81.02
2017-08-18T12:51:11.390Z,81.14
2017-08-18T12:53:47.099Z,81.07
2017-08-18T12:56:23.231Z,81.04
2017-08-18T12:58:59.590Z,81.14
2017-08-18T13:01:35.124Z,80.94
2017-08-18T13:04:09.935Z,81.11
2017-08-18T13:06:46.614Z,81.02
2017-08-18T13:09:22.880Z,81.10
2017-08-18T13:11:59.147Z,81.01
2017-08-18T13:14:35.310Z,81.02
2017-08-18T13:17:11.491Z,80.87
2017-08-18T13:19:46.227Z,80.97
2017-08-18T13:22:22.579Z,80.97
2017-08-18T13:24:57.846Z,80.94
2017-08-18T13:27:33.385Z,80.83
2017-08-18T13:30:08.468Z,80.82
2017-08-18T13:32:43.420Z,80.77
2017-08-18T13:35:18.761Z,80.78
2017-08-18T13:37:53.690Z,80.65
2017-08-18T13:40:28.963Z,80.72
2017-08-18T13:43:03.827Z,80.62
2017-08-18T13:45:38.605Z,80.67
2017-08-18T13:48:14.712Z,80.67
2017-08-18T13:50:50.677Z,80.68
2017-08-18T13:53:26.256Z,80.65
2017-08-18T13:56:01.853Z,80.63
2017-08-18T13:58:36.891Z,80.54
2017-08-18T14:01:12.152Z,80.55
2017-08-18T14:03:47.143Z,80.52
2017-08-18T14:06:23.372Z,80.61
2017-08-18T14:08:58.676Z,80.53
2017-08-18T14:11:34.681Z,80.83
2017-08-18T14:14:10.304Z,80.66
2017-08-18T14:16:45.743Z,80.54
2017-08-18T14:19:21.475Z,80.52
2017-08-18T14:22:02.082Z,80.72
2017-08-18T14:24:37.557Z,80.50
2017-08-18T14:27:18.662Z,80.46
2017-08-18T14:29:53.353Z,80.66
2017-08-18T14:32:29.177Z,80.48
2017-08-18T14:35:05.086Z,80.55
2017-08-18T14:37:42.557Z,80.60
2017-08-18T14:40:18.337Z,80.48
2017-08-18T14:42:53.957Z,80.60
2017-08-18T14:45:28.951Z,80.55
2017-08-18T14:48:05.311Z,80.78
2017-08-18T14:50:41.830Z,80.63
2017-08-18T14:53:18.280Z,80.57
2017-08-18T14:55:53.695Z,80.75
2017-08-18T14:58:28.971Z,80.59
2017-08-18T15:01:05.096Z,80.57
2017-08-18T15:03:40.350Z,80.66
2017-08-18T15:06:15.905Z,80.72
2017-08-18T15:08:52.259Z,80.58
2017-08-18T15:11:27.871Z,80.85
2017-08-18T15:14:04.485Z,80.64
2017-08-18T15:16:41.368Z,80.54
2017-08-18T15:19:17.398Z,80.62
2017-08-18T15:21:53.034Z,80.55
2017-08-18T15:24:28.069Z,80.79
2017-08-18T15:27:04.468Z,80.55
2017-08-18T15:29:41.028Z,80.56
2017-08-18T15:32:16.955Z,80.55
2017-08-18T15:34:52.480Z,80.54
2017-08-18T15:37:28.101Z,80.50
2017-08-18T15:40:03.114Z,80.55
2017-08-18T15:42:38.093Z,80.60
2017-08-18T15:45:13.896Z,80.51
2017-08-18T15:47:50.391Z,80.58
2017-08-18T15:50:26.320Z,80.54
2017-08-18T15:53:04.527Z,80.53
2017-08-18T15:55:40.584Z,80.46
2017-08-18T15:58:15.534Z,80.45
2017-08-18T16:00:50.365Z,80.63
2017-08-18T16:03:28.642Z,80.55
2017-08-18T16:06:04.413Z,80.56
2017-08-18T16:08:40.290Z,80.58
2017-08-18T16:11:14.870Z,80.50
2017-08-18T16:13:53.305Z,80.49
2017-08-18T16:16:28.834Z,80.43
2017-08-18T16:19:03.822Z,80.47
2017-08-18T16:21:39.461Z,80.64
2017-08-18T16:24:15.285Z,80.69
2017-08-18T16:26:51.431Z,80.64
2017-08-18T16:29:26.437Z,80.62
2017-08-18T16:32:01.400Z,80.71
2017-08-18T16:34:36.321Z,80.69
2017-08-18T16:37:12.251Z,80.77
2017-08-18T16:39:48.998Z,80.79
2017-08-18T16:42:25.519Z,80.87
2017-08-18T16:45:00.779Z,81.08
2017-08-18T16:47:37.460Z,80.99
2017-08-18T16:50:12.813Z,81.01
2017-08-18T16:52:48.043Z,80.98
2017-08-18T16:55:23.048Z,81.03
2017-08-18T16:57:59.353Z,81.02
2017-08-18T17:00:35.650Z,81.00
2017-08-18T17:03:11.117Z,81.08
2017-08-18T17:05:46.905Z,81.30
2017-08-18T17:08:22.283Z,81.19
2017-08-18T17:10:58.170Z,81.20
2017-08-18T17:13:35.694Z,81.18
2017-08-18T17:16:12.270Z,81.42
2017-08-18T17:18:47.763Z,81.43
2017-08-18T17:21:23.636Z,81.43
2017-08-18T17:23:59.374Z,81.38
2017-08-18T17:26:35.070Z,81.50
2017-08-18T17:29:11.281Z,81.48
2017-08-18T17:31:46.965Z,81.40
2017-08-18T17:34:22.629Z,81.60
2017-08-18T17:36:58.952Z,81.68
2017-08-18T17:39:34.943Z,81.60
2017-08-18T17:42:10.918Z,81.57
2017-08-18T17:44:46.605Z,81.84
2017-08-18T17:47:22.920Z,81.86
2017-08-18T17:49:58.796Z,81.78
2017-08-18T17:52:34.590Z,81.88
2017-08-18T17:55:10.583Z,81.92
2017-08-18T17:57:46.296Z,82.00
2017-08-18T18:00:21.772Z,81.96
2017-08-18T18:02:58.031Z,82.00
2017-08-18T18:05:33.853Z,82.03
2017-08-18T18:08:10.166Z,82.03
2017-08-18T18:10:46.592Z,82.08
2017-08-18T18:13:21.395Z,82.14
2017-08-18T18:15:56.802Z,82.37
2017-08-18T18:18:31.537Z,82.26
2017-08-18T18:21:06.937Z,82.31
2017-08-18T18:23:42.946Z,82.28
2017-08-18T18:26:18.113Z,82.24
2017-08-18T18:28:54.614Z,82.38
2017-08-18T18:31:30.754Z,82.37
2017-08-18T18:34:06.595Z,82.42
2017-08-18T18:36:42.006Z,82.44
2017-08-18T18:39:17.614Z,82.41
2017-08-18T18:41:53.384Z,82.43
2017-08-18T18:44:28.525Z,82.49
2017-08-18T18:47:03.473Z,82.46
2017-08-18T18:49:38.428Z,82.46
2017-08-18T18:52:13.525Z,82.56
2017-08-18T18:54:49.675Z,82.54
2017-08-18T18:57:25.360Z,82.63
2017-08-18T19:00:00.487Z,82.54
2017-08-18T19:02:35.378Z,82.47
2017-08-18T19:05:10.346Z,82.42
2017-08-18T19:07:45.756Z,82.33
2017-08-18T19:10:20.570Z,82.43
2017-08-18T19:12:55.835Z,82.42
2017-08-18T19:15:30.900Z,82.42
2017-08-18T19:18:06.349Z,82.50
2017-08-18T19:20:42.044Z,82.49
2017-08-18T19:23:17.509Z,82.47
2017-08-18T19:25:52.489Z,82.47
2017-08-18T19:28:27.592Z,82.58
2017-08-18T19:31:02.651Z,82.46
2017-08-18T19:33:38.151Z,82.50
2017-08-18T19:36:13.941Z,82.54
2017-08-18T19:38:50.202Z,82.47
2017-08-18T19:41:25.307Z,82.50
2017-08-18T19:44:00.402Z,82.58
2017-08-18T19:46:36.046Z,82.47
2017-08-18T19:49:11.019Z,82.60
2017-08-18T19:51:45.824Z,82.67
2017-08-18T19:54:20.755Z,82.56
2017-08-18T19:56:55.546Z,82.44
2017-08-18T19:59:31.265Z,82.51
2017-08-18T20:02:06.088Z,82.55
2017-08-18T20:04:41.137Z,82.57
2017-08-18T20:07:15.937Z,82.40
2017-08-18T20:09:51.960Z,82.47
2017-08-18T20:12:27.338Z,82.37
2017-08-18T20:15:02.418Z,82.42
2017-08-18T20:17:37.663Z,82.35
2017-08-18T20:20:13.413Z,82.21
2017-08-18T20:22:49.817Z,82.13
2017-08-18T20:25:25.349Z,82.29
2017-08-18T20:28:00.341Z,82.12
2017-08-18T20:30:36.186Z,82.16
2017-08-18T20:33:11.412Z,82.13
2017-08-18T20:35:47.118Z,82.11
2017-08-18T20:38:23.577Z,82.18
2017-08-18T20:40:58.419Z,82.05
2017-08-18T20:43:33.787Z,81.98
2017-08-18T20:46:09.476Z,82.06
2017-08-18T20:48:46.257Z,81.86
2017-08-18T20:51:22.717Z,82.18
2017-08-18T20:53:58.541Z,82.16
2017-08-18T20:56:34.291Z,81.87
2017-08-18T20:59:09.665Z,82.10
2017-08-18T21:01:44.864Z,82.07
2017-08-18T21:04:20.273Z,81.98
2017-08-18T21:06:55.321Z,82.07
2017-08-18T21:09:31.131Z,81.92
2017-08-18T21:12:06.898Z,81.97
2017-08-18T21:14:42.455Z,81.93
2017-08-18T21:17:17.784Z,81.70
2017-08-18T21:19:53.360Z,81.85
2017-08-18T21:22:29.137Z,81.96
2017-08-18T21:25:04.054Z,81.95
2017-08-18T21:27:38.992Z,81.97
2017-08-18T21:30:15.241Z,81.99
2017-08-18T21:32:50.849Z,82.00
2017-08-18T21:35:26.511Z,81.79
2017-08-18T21:38:01.945Z,81.71
2017-08-18T21:40:37.513Z,81.84
2017-08-18T21:43:12.493Z,81.73
2017-08-18T21:45:47.766Z,81.69
2017-08-18T21:48:23.144Z,81.79
2017-08-18T21:50:58.912Z,81.79
2017-08-18T21:53:35.101Z,82.00
2017-08-18T21:56:11.409Z,81.60
2017-08-18T21:58:46.598Z,81.82
2017-08-18T22:01:22.917Z,81.76
2017-08-18T22:03:59.188Z,81.66
2017-08-18T22:06:35.221Z,82.09
2017-08-18T22:09:11.389Z,81.72
2017-08-18T22:11:46.902Z,81.66
2017-08-18T22:14:22.674Z,81.71
2017-08-18T22:16:58.279Z,81.56
2017-08-18T22:19:33.714Z,81.64
2017-08-18T22:22:10.540Z,81.68
2017-08-18T22:24:46.270Z,81.78
2017-08-18T22:27:21.712Z,81.74
2017-08-18T22:29:58.263Z,81.66
2017-08-18T22:32:33.724Z,81.83
2017-08-18T22:35:08.822Z,81.82
2017-08-18T22:37:44.587Z,81.79
2017-08-18T22:40:19.911Z,81.91
2017-08-18T22:42:55.065Z,81.86
2017-08-18T22:45:30.233Z,81.88
2017-08-18T22:48:05.306Z,81.81
2017-08-18T22:50:40.469Z,81.86
2017-08-18T22:53:15.596Z,82.05
2017-08-18T22:55:51.657Z,81.77
2017-08-18T22:58:27.273Z,81.70
2017-08-18T23:01:03.037Z,81.71
2017-08-18T23:03:38.193Z,81.84
2017-08-18T23:06:13.017Z,81.92
2017-08-18T23:08:48.238Z,82.16
2017-08-18T23:11:24.423Z,82.51
2017-08-18T23:14:00.090Z,82.23
2017-08-18T23:16:36.242Z,82.33
2017-08-18T23:19:11.171Z,82.34
2017-08-18T23:21:46.894Z,82.27
2017-08-18T23:24:25.131Z,82.22
2017-08-18T23:27:00.115Z,82.35
2017-08-18T23:29:35.567Z,82.27
2017-08-18T23:32:11.121Z,82.30
2017-08-18T23:34:46.159Z,82.36
2017-08-18T23:37:22.355Z,82.34
2017-08-18T23:39:58.565Z,82.54
2017-08-18T23:42:33.856Z,82.36
2017-08-18T23:45:09.817Z,82.30
2017-08-18T23:47:45.075Z,82.42
2017-08-18T23:50:21.623Z,82.42
2017-08-18T23:53:00.447Z,82.40
2017-08-18T23:55:37.128Z,82.39
2017-08-18T23:58:13.024Z,82.51
